Time;durP1;ratioP1;P1;durP2;ratioP2;P2;SDS_P1;SDS_P2;PMS_P1;PMS_P2;Temp;Humidity;BMP_temperature;BMP_pressure;BME280_temperature;BME280_humidity;BME280_pressure;Samples;Min_cycle;Max_cycle;Signal;HPM_P1;HPM_P2
2022/07/04 00:01:46;;;;;;;8.80;8.40;;;12.00;99.90;;;;;;5092848;28;20453;-66
2022/07/04 00:04:13;;;;;;;10.43;9.73;;;12.00;99.90;;;;;;5095058;28;20895;-66
2022/07/04 00:06:40;;;;;;;10.40;9.80;;;11.90;99.90;;;;;;5093991;28;20465;-67
2022/07/04 00:09:08;;;;;;;9.97;9.33;;;11.80;99.90;;;;;;5100264;28;20462;-66
2022/07/04 00:11:35;;;;;;;10.03;9.53;;;11.80;99.90;;;;;;5095569;28;20461;-67
2022/07/04 00:14:03;;;;;;;10.87;10.20;;;11.70;99.90;;;;;;5098545;28;20814;-66
2022/07/04 00:16:30;;;;;;;9.80;9.20;;;11.70;99.90;;;;;;5096480;28;20472;-67
2022/07/04 00:18:57;;;;;;;10.60;10.00;;;11.60;99.90;;;;;;5097132;28;20462;-66
2022/07/04 00:21:24;;;;;;;10.93;10.13;;;11.60;99.90;;;;;;5092253;28;20820;-66
2022/07/04 00:23:51;;;;;;;11.10;10.43;;;11.60;99.90;;;;;;5099198;28;20473;-66
2022/07/04 00:26:21;;;;;;;10.70;10.20;;;11.50;99.90;;;;;;5095754;28;20492;-66
2022/07/04 00:28:48;;;;;;;11.90;11.20;;;11.50;99.90;;;;;;5093643;28;20485;-66
2022/07/04 00:31:15;;;;;;;11.40;10.70;;;11.50;99.90;;;;;;5096378;28;20605;-67
2022/07/04 00:33:43;;;;;;;11.30;10.70;;;11.50;99.90;;;;;;5097402;28;20956;-66
2022/07/04 00:36:10;;;;;;;11.60;11.03;;;11.40;99.90;;;;;;5093084;28;20532;-66
2022/07/04 00:38:37;;;;;;;12.00;11.43;;;11.40;99.90;;;;;;5091572;28;20964;-67
2022/07/04 00:41:04;;;;;;;11.40;10.80;;;11.40;99.90;;;;;;5098078;28;20474;-67
2022/07/04 00:43:33;;;;;;;11.80;11.10;;;11.30;99.90;;;;;;5090451;28;20558;-66
2022/07/04 00:46:04;;;;;;;11.20;10.60;;;11.30;99.90;;;;;;5092123;28;20494;-66
2022/07/04 00:48:31;;;;;;;12.63;11.80;;;11.30;99.90;;;;;;5099252;28;20492;-66
2022/07/04 00:50:58;;;;;;;12.63;12.03;;;11.20;99.90;;;;;;5092527;28;20465;-66
2022/07/04 00:53:26;;;;;;;13.10;12.13;;;11.20;99.90;;;;;;5096720;28;20468;-66
2022/07/04 00:55:54;;;;;;;13.83;12.40;;;11.20;99.90;;;;;;5090439;28;20465;-67
2022/07/04 00:58:22;;;;;;;12.43;11.70;;;11.20;99.90;;;;;;5095621;28;20540;-66
2022/07/04 01:00:50;;;;;;;12.47;11.37;;;11.10;99.90;;;;;;5096687;28;20979;-66
2022/07/04 01:03:17;;;;;;;13.13;12.43;;;11.20;99.90;;;;;;5093790;28;20462;-65
2022/07/04 01:05:45;;;;;;;13.60;12.43;;;11.10;99.90;;;;;;5096429;28;20493;-66
2022/07/04 01:08:12;;;;;;;12.57;11.97;;;11.10;99.90;;;;;;5091996;28;20475;-66
2022/07/04 01:10:39;;;;;;;12.73;11.93;;;11.00;99.90;;;;;;5092894;28;20462;-66
2022/07/04 01:13:08;;;;;;;12.53;11.73;;;10.90;99.90;;;;;;5098123;28;20461;-66
2022/07/04 01:15:35;;;;;;;13.13;12.43;;;10.90;99.90;;;;;;5091855;28;22529;-66
2022/07/04 01:18:04;;;;;;;13.60;12.90;;;10.90;99.90;;;;;;5098413;27;20956;-67
2022/07/04 01:20:37;;;;;;;13.83;12.93;;;10.80;99.90;;;;;;5092111;28;20469;-66
2022/07/04 01:23:03;;;;;;;13.40;12.60;;;10.80;99.90;;;;;;5096579;28;20511;-66
2022/07/04 01:25:33;;;;;;;13.00;12.20;;;10.80;99.90;;;;;;5102689;28;20485;-66
2022/07/04 01:28:01;;;;;;;14.23;13.27;;;10.80;99.90;;;;;;5096253;28;20488;-66
2022/07/04 01:30:29;;;;;;;14.17;13.30;;;10.80;99.90;;;;;;5096010;28;20486;-69
2022/07/04 01:32:56;;;;;;;13.87;13.17;;;10.80;99.90;;;;;;5097437;28;20507;-68
2022/07/04 01:35:23;;;;;;;14.13;13.33;;;10.70;99.90;;;;;;5101465;28;20543;-67
2022/07/04 01:37:52;;;;;;;13.90;13.10;;;10.70;99.90;;;;;;5102404;28;20684;-68
2022/07/04 01:40:21;;;;;;;14.43;13.53;;;10.60;99.90;;;;;;5099286;28;20465;-67
2022/07/04 01:42:48;;;;;;;15.83;14.60;;;10.60;99.90;;;;;;5097993;27;20461;-65
2022/07/04 01:45:16;;;;;;;14.70;14.00;;;10.50;99.90;;;;;;5101015;28;20857;-66
2022/07/04 01:47:45;;;;;;;14.27;13.37;;;10.50;99.90;;;;;;5097954;28;20454;-66
2022/07/04 01:50:13;;;;;;;14.80;13.60;;;10.50;99.90;;;;;;5098782;28;20462;-66
2022/07/04 01:52:41;;;;;;;15.27;13.83;;;10.40;99.90;;;;;;5095737;28;20506;-66
2022/07/04 01:55:10;;;;;;;14.07;13.23;;;10.40;99.90;;;;;;5093498;28;20477;-66
2022/07/04 01:57:38;;;;;;;13.77;13.17;;;10.40;99.90;;;;;;5090799;28;20548;-67
2022/07/04 02:02:50;;;;;;;14.97;14.17;;;10.30;99.90;;;;;;5102647;28;20467;-66
2022/07/04 02:05:18;;;;;;;15.17;14.27;;;10.30;99.90;;;;;;5098232;28;20494;-65
2022/07/04 02:07:47;;;;;;;13.83;13.13;;;10.40;99.90;;;;;;5101913;28;20469;-65
2022/07/04 02:10:15;;;;;;;14.70;13.80;;;10.40;99.90;;;;;;5094761;28;20462;-68
2022/07/04 02:15:27;;;;;;;14.73;13.40;;;10.30;99.90;;;;;;5105581;28;20456;-68
2022/07/04 02:17:54;;;;;;;14.17;13.47;;;10.30;99.90;;;;;;5104168;28;20464;-66
2022/07/04 02:20:21;;;;;;;14.60;13.90;;;10.30;99.90;;;;;;5095192;28;20472;-67
2022/07/04 02:22:49;;;;;;;14.70;13.87;;;10.20;99.90;;;;;;5093909;28;20466;-66
2022/07/04 02:25:20;;;;;;;14.67;13.87;;;10.20;99.90;;;;;;5094711;28;20545;-66
2022/07/04 02:27:47;;;;;;;14.60;13.70;;;10.20;99.90;;;;;;5090321;28;20477;-67
2022/07/04 02:30:15;;;;;;;14.37;13.57;;;10.20;99.90;;;;;;5100399;28;20466;-67
2022/07/04 02:32:42;;;;;;;14.83;14.10;;;10.20;99.90;;;;;;5098120;28;20474;-67
2022/07/04 02:35:10;;;;;;;15.20;14.40;;;10.10;99.90;;;;;;5097305;28;20462;-67
2022/07/04 02:37:39;;;;;;;14.20;13.30;;;10.10;99.90;;;;;;5092620;28;20458;-67
2022/07/04 02:40:07;;;;;;;15.93;15.03;;;10.10;99.90;;;;;;5093345;28;20480;-66
2022/07/04 02:42:37;;;;;;;15.67;14.40;;;10.10;99.90;;;;;;5098134;28;20975;-66
2022/07/04 02:45:04;;;;;;;15.50;14.70;;;10.00;99.90;;;;;;5101001;28;20846;-66
2022/07/04 02:47:31;;;;;;;15.87;14.50;;;10.00;99.90;;;;;;5097431;28;20461;-67
2022/07/04 02:50:01;;;;;;;15.03;14.13;;;10.00;99.90;;;;;;5098430;28;20458;-67
2022/07/04 02:52:28;;;;;;;14.90;13.90;;;10.00;99.90;;;;;;5094330;28;20519;-67
2022/07/04 02:54:56;;;;;;;15.40;14.27;;;10.00;99.90;;;;;;5092999;28;20476;-66
2022/07/04 02:57:23;;;;;;;16.13;15.03;;;9.90;99.90;;;;;;5097804;28;20813;-66
2022/07/04 02:59:53;;;;;;;15.73;14.67;;;10.00;99.90;;;;;;5094928;28;20522;-67
2022/07/04 03:02:20;;;;;;;15.40;14.40;;;10.10;99.90;;;;;;5095737;28;20461;-67
2022/07/04 03:04:47;;;;;;;14.87;13.87;;;10.10;99.90;;;;;;5097354;28;20473;-67
2022/07/04 03:07:16;;;;;;;15.80;14.70;;;10.00;99.90;;;;;;5093909;28;20500;-66
2022/07/04 03:09:43;;;;;;;15.47;14.47;;;10.00;99.90;;;;;;5099439;28;20458;-66
2022/07/04 03:12:10;;;;;;;16.90;15.40;;;10.00;99.90;;;;;;5103843;28;20465;-66
2022/07/04 03:14:37;;;;;;;15.90;14.80;;;10.10;99.90;;;;;;5089949;28;20955;-66
2022/07/04 03:17:06;;;;;;;15.67;14.60;;;10.30;99.90;;;;;;5096922;28;20477;-67
2022/07/04 03:19:33;;;;;;;15.10;14.00;;;10.60;99.90;;;;;;5094929;28;20461;-67
2022/07/04 03:22:00;;;;;;;15.03;14.07;;;10.70;99.90;;;;;;5093002;28;20462;-66
2022/07/04 03:24:26;;;;;;;15.37;14.20;;;10.60;99.90;;;;;;5092279;28;20459;-67
2022/07/04 03:26:53;;;;;;;16.13;15.13;;;10.60;99.90;;;;;;5088767;28;20486;-66
2022/07/04 03:29:20;;;;;;;16.00;14.80;;;10.60;99.90;;;;;;5093215;28;20491;-66
2022/07/04 03:31:47;;;;;;;14.90;14.00;;;10.70;99.90;;;;;;5095273;28;20458;-66
2022/07/04 03:34:15;;;;;;;14.60;13.80;;;10.70;99.90;;;;;;5094701;28;20453;-66
2022/07/04 03:36:43;;;;;;;15.87;14.87;;;10.70;99.90;;;;;;5095864;28;20468;-67
2022/07/04 03:39:10;;;;;;;15.40;14.10;;;10.60;99.90;;;;;;5096484;28;20994;-66
2022/07/04 03:41:38;;;;;;;16.27;15.27;;;10.60;99.90;;;;;;5095730;28;20976;-66
2022/07/04 03:44:05;;;;;;;16.33;15.13;;;10.60;99.90;;;;;;5095935;28;20457;-67
2022/07/04 03:46:32;;;;;;;16.03;15.03;;;10.60;99.90;;;;;;5092509;28;20507;-67
2022/07/04 03:48:59;;;;;;;16.77;15.67;;;10.60;99.90;;;;;;5094669;28;20461;-67
2022/07/04 03:51:27;;;;;;;17.90;16.50;;;10.60;99.90;;;;;;5092013;28;20862;-66
2022/07/04 03:53:54;;;;;;;16.40;15.20;;;10.70;99.90;;;;;;5099876;28;20736;-67
2022/07/04 03:56:21;;;;;;;17.03;15.33;;;10.80;99.90;;;;;;5094369;28;20471;-66
2022/07/04 03:58:49;;;;;;;17.97;16.50;;;10.70;99.90;;;;;;5093011;28;20857;-66
2022/07/04 04:01:17;;;;;;;16.80;15.73;;;10.70;99.90;;;;;;5087490;28;20818;-66
2022/07/04 04:06:31;;;;;;;17.43;16.43;;;10.60;99.90;;;;;;5070395;28;20537;-66
2022/07/04 04:08:59;;;;;;;17.70;16.60;;;10.50;99.90;;;;;;5069775;28;20462;-67
2022/07/04 04:11:26;;;;;;;17.40;16.20;;;10.50;99.90;;;;;;5070444;28;20453;-66
2022/07/04 04:13:53;;;;;;;18.83;17.63;;;10.50;99.90;;;;;;5069137;28;20458;-68
2022/07/04 04:16:20;;;;;;;18.87;16.70;;;10.60;99.90;;;;;;5069396;28;20469;-67
2022/07/04 04:18:47;;;;;;;17.57;16.30;;;10.80;99.90;;;;;;5069990;28;20757;-66
2022/07/04 04:21:14;;;;;;;18.53;17.13;;;11.00;99.90;;;;;;5069475;28;20744;-68
2022/07/04 04:23:42;;;;;;;17.37;15.70;;;11.10;99.90;;;;;;5069018;28;20532;-67
2022/07/04 04:26:09;;;;;;;17.60;16.30;;;11.20;99.90;;;;;;5070015;28;20713;-67
2022/07/04 04:28:36;;;;;;;16.87;15.90;;;11.30;99.90;;;;;;5069155;28;20505;-68
2022/07/04 04:31:03;;;;;;;16.87;15.77;;;11.40;99.90;;;;;;5069512;28;20816;-67
2022/07/04 04:33:29;;;;;;;17.03;15.70;;;11.60;99.90;;;;;;5069184;28;20453;-68
2022/07/04 04:35:56;;;;;;;15.90;14.90;;;11.60;99.90;;;;;;5069630;28;20458;-67
2022/07/04 04:38:23;;;;;;;15.83;14.93;;;11.80;99.90;;;;;;5069325;28;20495;-67
2022/07/04 04:40:51;;;;;;;15.60;14.60;;;12.00;99.90;;;;;;5069876;28;20971;-67
2022/07/04 04:43:18;;;;;;;15.83;14.80;;;12.10;99.90;;;;;;5069336;28;21299;-66
2022/07/04 04:45:45;;;;;;;15.63;14.73;;;12.20;99.90;;;;;;5069428;28;20486;-66
2022/07/04 04:48:12;;;;;;;15.73;14.67;;;12.20;99.90;;;;;;5068995;28;20947;-66
2022/07/04 04:50:39;;;;;;;16.13;15.17;;;12.10;99.90;;;;;;5068663;28;20824;-67
2022/07/04 04:53:06;;;;;;;16.87;15.80;;;12.10;99.90;;;;;;5068450;28;20469;-67
2022/07/04 04:55:34;;;;;;;16.13;15.07;;;12.00;99.90;;;;;;5068929;28;20825;-67
2022/07/04 04:58:02;;;;;;;15.03;14.03;;;12.10;99.90;;;;;;5087795;28;20828;-67
2022/07/04 05:00:29;;;;;;;16.23;15.20;;;12.10;99.90;;;;;;5090230;28;20465;-67
2022/07/04 05:02:55;;;;;;;16.80;15.53;;;12.30;99.90;;;;;;5096913;28;20461;-66
2022/07/04 05:05:23;;;;;;;16.33;15.30;;;12.30;99.90;;;;;;5068484;28;20482;-67
2022/07/04 05:07:50;;;;;;;16.37;15.17;;;12.40;99.90;;;;;;5068510;28;20870;-67
2022/07/04 05:10:17;;;;;;;17.47;16.13;;;12.40;99.90;;;;;;5069286;28;21188;-66
2022/07/04 05:12:44;;;;;;;17.90;16.37;;;12.40;99.90;;;;;;5068724;28;21699;-66
2022/07/04 05:15:12;;;;;;;17.60;16.07;;;12.50;99.90;;;;;;5069461;28;20498;-65
2022/07/04 05:17:39;;;;;;;17.70;16.00;;;12.60;99.90;;;;;;5069753;28;20514;-66
2022/07/04 05:20:08;;;;;;;17.23;16.20;;;12.70;99.90;;;;;;5068738;28;20458;-66
2022/07/04 05:22:35;;;;;;;16.37;14.87;;;12.80;99.90;;;;;;5068683;28;20575;-66
2022/07/04 05:25:01;;;;;;;16.40;15.20;;;12.90;99.90;;;;;;5068915;28;20481;-66
2022/07/04 05:27:30;;;;;;;15.53;14.53;;;13.10;99.90;;;;;;5068594;28;21014;-66
2022/07/04 05:29:58;;;;;;;16.07;15.00;;;13.20;99.90;;;;;;5068884;28;20462;-66
2022/07/04 05:32:26;;;;;;;17.30;15.57;;;13.30;99.90;;;;;;5068854;28;20459;-66
2022/07/04 05:34:54;;;;;;;17.37;16.17;;;13.40;99.90;;;;;;5068936;28;20458;-67
2022/07/04 05:37:21;;;;;;;16.77;15.57;;;13.60;99.90;;;;;;5068951;28;20469;-66
2022/07/04 05:39:47;;;;;;;16.20;14.90;;;13.90;99.90;;;;;;5068557;28;20545;-66
2022/07/04 05:42:14;;;;;;;14.80;13.43;;;14.00;99.90;;;;;;5068169;28;20943;-66
2022/07/04 05:44:41;;;;;;;14.13;13.03;;;14.20;99.90;;;;;;5069593;28;20969;-67
2022/07/04 05:47:08;;;;;;;14.30;13.30;;;14.30;99.90;;;;;;5068260;28;20823;-66
2022/07/04 05:49:37;;;;;;;13.33;12.20;;;14.30;99.90;;;;;;5068532;28;21108;-67
2022/07/04 05:52:04;;;;;;;12.80;11.87;;;14.40;99.90;;;;;;5067873;28;20535;-66
2022/07/04 05:54:31;;;;;;;14.00;12.83;;;14.40;99.90;;;;;;5069090;28;20455;-67
2022/07/04 05:56:59;;;;;;;13.00;12.00;;;14.60;99.90;;;;;;5090285;28;20462;-66
2022/07/04 05:59:29;;;;;;;12.17;11.37;;;14.60;99.90;;;;;;5091025;28;20472;-66
2022/07/04 06:01:56;;;;;;;12.33;11.43;;;14.80;99.90;;;;;;5074341;28;20473;-66
2022/07/04 06:04:22;;;;;;;13.70;11.97;;;14.90;99.90;;;;;;5071129;28;20889;-66
2022/07/04 06:06:51;;;;;;;12.70;11.63;;;15.10;99.90;;;;;;5070302;28;20477;-68
2022/07/04 06:09:18;;;;;;;14.07;13.07;;;15.20;99.90;;;;;;5070903;28;20458;-67
2022/07/04 06:11:45;;;;;;;12.70;11.60;;;15.20;99.90;;;;;;5071301;28;20473;-66
2022/07/04 06:14:12;;;;;;;12.80;11.53;;;15.30;99.90;;;;;;5070241;28;20470;-66
2022/07/04 06:16:39;;;;;;;13.60;12.20;;;15.50;99.90;;;;;;5071526;28;20457;-66
2022/07/04 06:19:06;;;;;;;12.50;11.73;;;15.60;99.90;;;;;;5070746;28;20454;-66
2022/07/04 06:21:33;;;;;;;13.97;13.07;;;15.80;99.90;;;;;;5070630;28;20915;-66
2022/07/04 06:24:02;;;;;;;12.70;11.80;;;15.90;99.90;;;;;;5070277;28;20554;-67
2022/07/04 06:26:29;;;;;;;12.43;11.63;;;15.90;99.90;;;;;;5070306;28;20485;-66
2022/07/04 06:28:57;;;;;;;12.50;11.60;;;16.10;99.90;;;;;;5070695;28;20884;-68
2022/07/04 06:31:24;;;;;;;11.87;11.23;;;16.20;99.90;;;;;;5070473;28;20966;-67
2022/07/04 06:36:35;;;;;;;13.77;12.80;;;16.60;99.90;;;;;;5070465;28;21068;-66
2022/07/04 06:39:03;;;;;;;13.13;12.33;;;16.70;99.90;;;;;;5070486;28;20473;-67
2022/07/04 06:41:30;;;;;;;14.10;13.07;;;16.80;99.90;;;;;;5070636;28;20832;-67
2022/07/04 06:43:57;;;;;;;13.07;12.47;;;16.90;99.90;;;;;;5069154;28;20466;-67
2022/07/04 06:46:24;;;;;;;13.43;12.77;;;17.00;99.90;;;;;;5069596;28;20539;-67
2022/07/04 06:48:51;;;;;;;14.33;13.40;;;17.10;99.90;;;;;;5071520;28;20461;-67
2022/07/04 06:51:18;;;;;;;14.93;13.53;;;17.20;99.90;;;;;;5070038;28;20469;-66
2022/07/04 06:53:45;;;;;;;15.37;14.20;;;17.20;99.90;;;;;;5081847;28;20468;-66
2022/07/04 06:56:13;;;;;;;13.47;12.73;;;17.40;99.90;;;;;;5074131;28;20471;-67
2022/07/04 06:58:40;;;;;;;22.60;13.20;;;17.50;99.90;;;;;;5070288;28;20509;-66
2022/07/04 07:01:07;;;;;;;13.90;13.20;;;17.50;99.90;;;;;;5069440;28;20877;-68
2022/07/04 07:03:34;;;;;;;13.73;12.93;;;17.70;99.90;;;;;;5070005;28;20833;-67
2022/07/04 07:06:02;;;;;;;14.60;13.50;;;17.80;99.90;;;;;;5069606;28;20554;-66
2022/07/04 07:08:29;;;;;;;14.93;13.60;;;17.90;99.90;;;;;;5069264;28;20458;-67
2022/07/04 07:10:56;;;;;;;14.20;13.40;;;18.00;99.90;;;;;;5069717;28;20462;-67
2022/07/04 07:13:24;;;;;;;14.33;13.53;;;18.10;99.90;;;;;;5068507;28;20466;-66
2022/07/04 07:15:51;;;;;;;13.80;13.10;;;18.00;99.90;;;;;;5068806;28;20953;-66
2022/07/04 07:18:19;;;;;;;14.43;13.53;;;18.20;99.90;;;;;;5070040;28;20469;-67
2022/07/04 07:20:46;;;;;;;26.80;14.83;;;18.40;99.90;;;;;;5070169;28;20469;-67
2022/07/04 07:23:13;;;;;;;14.63;13.80;;;18.40;99.90;;;;;;5069478;28;20465;-67
2022/07/04 07:25:40;;;;;;;14.70;13.80;;;18.40;99.90;;;;;;5068428;28;21028;-67
2022/07/04 07:28:07;;;;;;;14.93;14.00;;;18.50;99.90;;;;;;5069275;28;20492;-66
2022/07/04 07:30:35;;;;;;;14.73;13.83;;;18.60;99.90;;;;;;5070177;28;20465;-67
2022/07/04 07:33:02;;;;;;;14.93;14.23;;;18.60;99.90;;;;;;5069190;28;21136;-67
2022/07/04 07:35:28;;;;;;;16.00;14.73;;;18.70;99.90;;;;;;5069283;28;20518;-68
2022/07/04 07:37:55;;;;;;;14.50;13.80;;;18.80;99.90;;;;;;5069296;28;20461;-66
2022/07/04 07:40:22;;;;;;;14.93;13.70;;;18.80;99.90;;;;;;5068891;28;20462;-67
2022/07/04 07:42:49;;;;;;;15.67;14.60;;;19.00;99.90;;;;;;5066828;28;20476;-67
2022/07/04 07:45:16;;;;;;;15.93;14.77;;;19.00;99.90;;;;;;5067014;28;20813;-67
2022/07/04 07:47:44;;;;;;;14.93;13.83;;;19.10;99.90;;;;;;5067521;28;20524;-68
2022/07/04 07:50:11;;;;;;;14.80;13.80;;;19.20;99.90;;;;;;5067156;28;20458;-68
2022/07/04 07:52:38;;;;;;;15.37;14.37;;;19.30;99.90;;;;;;5064764;28;20572;-67
2022/07/04 07:55:06;;;;;;;15.33;14.23;;;19.40;99.90;;;;;;5076648;28;21056;-67
2022/07/04 07:57:33;;;;;;;16.17;15.00;;;19.40;99.90;;;;;;5063573;28;20535;-68
2022/07/04 08:00:00;;;;;;;15.23;14.13;;;19.50;99.90;;;;;;5068924;28;20461;-68
2022/07/04 08:05:10;;;;;;;15.33;14.20;;;19.50;99.90;;;;;;5068415;28;20674;-68
2022/07/04 08:07:37;;;;;;;15.03;14.10;;;19.80;99.90;;;;;;5066743;28;20488;-68
2022/07/04 08:10:04;;;;;;;16.07;14.93;;;20.20;99.90;;;;;;5067208;28;20466;-68
2022/07/04 08:12:31;;;;;;;15.50;14.60;;;20.60;99.90;;;;;;5044461;27;20494;-67
2022/07/04 08:14:59;;;;;;;16.87;15.67;;;21.30;99.90;;;;;;5065126;28;21332;-68
2022/07/04 08:17:27;;;;;;;15.83;15.00;;;22.10;99.90;;;;;;5095718;28;20458;-68
2022/07/04 08:19:55;;;;;;;16.37;15.40;;;22.70;99.90;;;;;;5094671;27;20468;-68
2022/07/04 08:22:23;;;;;;;15.97;15.07;;;23.20;99.90;;;;;;5074084;27;21437;-69
2022/07/04 08:24:49;;;;;;;17.50;15.90;;;23.80;99.90;;;;;;5065995;28;20984;-68
2022/07/04 08:27:16;;;;;;;17.67;16.23;;;24.00;99.90;;;;;;5066315;28;20985;-68
2022/07/04 08:29:43;;;;;;;15.93;15.10;;;24.10;99.90;;;;;;5066947;28;20593;-68
2022/07/04 08:32:10;;;;;;;16.93;15.80;;;24.50;99.90;;;;;;5065651;28;20469;-68
2022/07/04 08:34:38;;;;;;;16.40;15.50;;;24.40;98.30;;;;;;5066105;28;20509;-68
2022/07/04 08:37:04;;;;;;;16.40;14.93;;;24.30;99.90;;;;;;5066062;28;20905;-69
2022/07/04 08:39:33;;;;;;;16.33;15.43;;;24.40;99.50;;;;;;5066257;28;20976;-68
2022/07/04 08:42:06;;;;;;;16.57;15.57;;;24.30;98.40;;;;;;5065554;28;20462;-68
2022/07/04 08:44:37;;;;;;;16.63;15.63;;;24.50;98.10;;;;;;5066017;28;21385;-67
2022/07/04 08:47:05;;;;;;;17.97;16.30;;;24.80;98.20;;;;;;5066285;28;20493;-69
2022/07/04 08:49:34;;;;;;;16.90;15.77;;;25.30;97.00;;;;;;5065598;28;20461;-68
2022/07/04 08:52:04;;;;;;;16.40;15.50;;;25.50;95.20;;;;;;5066776;28;20470;-67
2022/07/04 09:00:05;;;;;;;16.70;15.80;;;26.10;90.90;;;;;;5068116;28;23162;-69
2022/07/04 09:02:34;;;;;;;16.50;15.20;;;25.80;90.30;;;;;;5068176;28;20503;-68
2022/07/04 09:05:01;;;;;;;15.97;15.13;;;25.50;88.00;;;;;;5067326;28;20450;-68
2022/07/04 09:07:29;;;;;;;16.20;15.30;;;25.50;90.60;;;;;;5067549;28;20844;-68
2022/07/04 09:09:58;;;;;;;16.97;16.07;;;26.20;90.30;;;;;;5067383;28;20713;-68
2022/07/04 09:12:25;;;;;;;17.60;16.30;;;26.70;88.60;;;;;;5067586;28;20470;-68
2022/07/04 09:14:52;;;;;;;16.23;15.33;;;26.70;84.10;;;;;;5068396;28;20460;-69
2022/07/04 09:17:19;;;;;;;16.90;15.40;;;26.30;82.40;;;;;;5067406;28;20520;-68
2022/07/04 09:19:46;;;;;;;17.07;15.90;;;26.80;82.90;;;;;;5067480;28;20458;-68
2022/07/04 09:22:14;;;;;;;15.70;14.90;;;26.30;77.60;;;;;;5067284;28;20868;-69
2022/07/04 09:24:49;;;;;;;15.63;14.93;;;26.10;78.90;;;;;;5066129;28;21104;-68
2022/07/04 09:27:34;;;;;;;16.60;15.60;;;26.30;79.90;;;;;;5067761;28;20510;-68
2022/07/04 09:30:03;;;;;;;16.80;15.90;;;26.90;78.70;;;;;;5066919;28;20964;-69
2022/07/04 09:32:38;;;;;;;17.30;16.00;;;27.30;78.60;;;;;;5067231;28;20462;-69
2022/07/04 09:35:06;;;;;;;16.70;15.70;;;27.40;77.80;;;;;;5067999;28;20554;-69
2022/07/04 09:37:40;;;;;;;16.93;15.73;;;27.90;77.20;;;;;;5069625;28;20461;-69
2022/07/04 09:40:10;;;;;;;16.73;15.63;;;27.10;72.90;;;;;;5071335;28;20462;-70
2022/07/04 09:42:39;;;;;;;16.17;15.37;;;26.20;74.70;;;;;;5071596;28;20835;-69
2022/07/04 09:45:08;;;;;;;16.70;15.43;;;25.60;80.70;;;;;;5070663;28;20969;-69
2022/07/04 09:47:36;;;;;;;16.23;15.40;;;25.80;82.10;;;;;;5069908;28;21005;-68
2022/07/04 09:50:05;;;;;;;16.90;15.83;;;25.90;81.00;;;;;;5070950;28;20557;-68
2022/07/04 09:52:33;;;;;;;16.90;15.87;;;26.60;78.50;;;;;;5071145;28;20454;-69
2022/07/04 09:55:00;;;;;;;16.97;15.87;;;27.00;74.40;;;;;;5070914;28;20465;-68
2022/07/04 09:57:27;;;;;;;16.73;15.40;;;27.70;76.50;;;;;;5070793;28;20538;-69
2022/07/04 09:59:56;;;;;;;17.40;16.00;;;28.30;74.60;;;;;;5069594;28;21027;-68
2022/07/04 10:02:23;;;;;;;16.63;15.73;;;27.00;76.50;;;;;;5070742;28;20466;-69
2022/07/04 10:04:51;;;;;;;16.43;15.53;;;27.00;75.60;;;;;;5070701;28;20453;-68
2022/07/04 10:07:36;;;;;;;16.57;15.67;;;27.50;74.00;;;;;;5069878;28;20525;-68
2022/07/04 10:10:28;;;;;;;16.07;14.97;;;28.60;70.60;;;;;;5070849;28;20546;-69
2022/07/04 10:12:58;;;;;;;16.20;15.37;;;29.00;71.40;;;;;;5070742;28;20992;-69
2022/07/04 10:15:26;;;;;;;17.37;16.17;;;28.80;68.30;;;;;;5070553;28;20460;-68
2022/07/04 10:17:53;;;;;;;16.30;15.50;;;28.90;63.20;;;;;;5070364;28;20984;-69
2022/07/04 10:20:20;;;;;;;16.53;15.53;;;28.90;63.60;;;;;;5066897;28;21544;-69
2022/07/04 10:22:47;;;;;;;17.03;15.83;;;28.90;61.50;;;;;;5069700;27;21004;-68
2022/07/04 10:25:14;;;;;;;16.60;15.60;;;28.90;62.30;;;;;;5073116;27;20462;-68
2022/07/04 10:27:42;;;;;;;16.90;15.90;;;28.80;62.10;;;;;;5080341;28;20496;-69
2022/07/04 10:30:13;;;;;;;16.80;15.97;;;28.20;60.70;;;;;;5092591;28;20461;-68
2022/07/04 10:32:44;;;;;;;16.50;15.70;;;28.60;60.60;;;;;;5095190;28;20466;-68
2022/07/04 10:35:14;;;;;;;16.27;15.30;;;29.20;62.10;;;;;;5081095;28;20546;-69
2022/07/04 10:38:02;;;;;;;17.50;16.20;;;29.60;59.10;;;;;;5062733;28;20983;-69
2022/07/04 10:40:45;;;;;;;16.60;15.70;;;28.70;57.70;;;;;;5065618;28;20477;-69
2022/07/04 10:43:52;;;;;;;16.73;15.83;;;28.30;57.20;;;;;;5063824;28;20458;-69
2022/07/04 10:46:48;;;;;;;17.57;16.10;;;28.70;57.20;;;;;;5059210;28;20825;-69
2022/07/04 10:49:21;;;;;;;15.73;15.03;;;29.90;57.80;;;;;;5062137;28;20468;-69
2022/07/04 10:51:50;;;;;;;16.33;15.50;;;30.80;55.20;;;;;;5072006;28;20999;-69
2022/07/04 10:54:19;;;;;;;15.73;14.83;;;31.20;52.80;;;;;;5086632;28;20466;-69
2022/07/04 10:56:52;;;;;;;16.33;15.20;;;31.10;53.20;;;;;;5086824;28;20473;-69
2022/07/04 10:59:22;;;;;;;16.80;15.40;;;29.60;54.90;;;;;;5081801;28;20991;-70
2022/07/04 11:01:52;;;;;;;17.43;16.10;;;30.00;54.80;;;;;;5065338;28;20458;-70
2022/07/04 11:04:51;;;;;;;16.40;15.50;;;30.30;54.90;;;;;;5064166;28;21065;-68
2022/07/04 11:07:19;;;;;;;17.93;16.30;;;29.90;56.60;;;;;;5064228;28;20493;-69
2022/07/04 11:09:47;;;;;;;16.80;15.80;;;28.80;56.60;;;;;;5064362;28;21095;-69
2022/07/04 11:12:15;;;;;;;16.13;15.23;;;28.40;57.20;;;;;;5063540;28;20484;-69
2022/07/04 11:14:43;;;;;;;15.97;14.93;;;28.30;58.70;;;;;;5063149;28;20473;-69
2022/07/04 11:17:12;;;;;;;16.30;15.50;;;28.90;57.90;;;;;;5063794;28;20655;-70
2022/07/04 11:19:40;;;;;;;16.23;15.33;;;29.00;53.50;;;;;;5062967;28;20658;-69
2022/07/04 11:22:10;;;;;;;16.53;15.17;;;29.60;52.80;;;;;;5064448;28;20867;-69
2022/07/04 11:24:38;;;;;;;15.93;15.03;;;30.30;52.70;;;;;;5064116;28;20628;-69
2022/07/04 11:27:08;;;;;;;17.67;16.20;;;30.70;51.40;;;;;;5062699;28;20490;-69
2022/07/04 11:29:35;;;;;;;15.83;14.93;;;30.30;52.30;;;;;;5065105;28;20489;-69
2022/07/04 11:32:06;;;;;;;17.03;15.93;;;30.50;53.40;;;;;;5065305;28;20465;-68
2022/07/04 11:34:34;;;;;;;15.70;14.90;;;30.80;53.00;;;;;;5064825;28;21003;-70
2022/07/04 11:37:04;;;;;;;16.00;15.00;;;31.00;49.60;;;;;;5063271;28;20468;-70
2022/07/04 11:39:32;;;;;;;15.60;14.80;;;31.00;50.60;;;;;;5064223;28;20905;-69
2022/07/04 11:45:03;;;;;;;15.77;14.87;;;31.20;48.10;;;;;;5064070;28;20498;-70
2022/07/04 11:47:35;;;;;;;16.23;15.43;;;31.10;49.00;;;;;;5063469;28;21117;-69
2022/07/04 11:50:03;;;;;;;16.00;15.00;;;30.40;49.30;;;;;;5064154;28;21334;-70
2022/07/04 11:52:39;;;;;;;16.07;14.87;;;29.90;50.40;;;;;;5063178;28;20832;-70
2022/07/04 11:55:09;;;;;;;16.77;15.40;;;30.50;49.80;;;;;;5064391;28;20465;-69
2022/07/04 11:57:38;;;;;;;16.00;15.10;;;31.50;49.00;;;;;;5063120;28;20473;-70
2022/07/04 12:00:07;;;;;;;15.77;14.97;;;31.50;48.00;;;;;;5063970;28;20994;-70
2022/07/04 12:02:34;;;;;;;16.03;15.33;;;31.50;49.10;;;;;;5076646;28;20465;-69
2022/07/04 12:05:03;;;;;;;16.30;15.40;;;31.60;48.50;;;;;;5087306;28;20461;-69
2022/07/04 12:07:32;;;;;;;16.30;15.00;;;31.60;47.90;;;;;;5064058;28;20489;-69
2022/07/04 12:10:10;;;;;;;16.43;15.50;;;31.30;47.10;;;;;;5062991;28;20568;-71
2022/07/04 12:12:50;;;;;;;15.60;14.60;;;30.70;46.70;;;;;;5064217;28;20462;-68
2022/07/04 12:15:17;;;;;;;15.03;14.37;;;29.80;46.80;;;;;;5064130;28;21485;-68
2022/07/04 12:17:44;;;;;;;15.23;14.53;;;30.20;47.50;;;;;;5063678;28;21009;-68
2022/07/04 12:20:13;;;;;;;15.50;14.70;;;31.60;46.00;;;;;;5064221;28;20465;-68
2022/07/04 12:22:41;;;;;;;16.20;15.23;;;31.60;45.90;;;;;;5063694;28;21234;-69
2022/07/04 12:25:23;;;;;;;16.53;15.50;;;32.50;45.10;;;;;;5062821;28;20462;-69
2022/07/04 12:27:58;;;;;;;16.33;15.53;;;32.50;45.40;;;;;;5062587;28;20492;-68
2022/07/04 12:30:27;;;;;;;16.60;15.60;;;32.80;45.10;;;;;;5063540;28;20449;-68
2022/07/04 12:32:58;;;;;;;15.50;14.80;;;33.40;43.00;;;;;;5062254;28;20457;-68
2022/07/04 12:35:47;;;;;;;16.00;15.00;;;33.20;43.10;;;;;;5063097;28;20469;-68
2022/07/04 12:38:15;;;;;;;15.70;14.80;;;32.80;43.30;;;;;;5063246;28;20470;-68
2022/07/04 12:40:56;;;;;;;16.73;15.50;;;32.90;42.30;;;;;;5062435;28;20453;-68
2022/07/04 12:43:24;;;;;;;15.07;14.23;;;31.90;43.60;;;;;;5062766;28;20616;-69
2022/07/04 12:45:53;;;;;;;15.67;14.87;;;31.30;43.90;;;;;;5062644;28;20906;-68
2022/07/04 12:48:24;;;;;;;15.90;15.00;;;30.80;44.40;;;;;;5062956;28;20520;-68
2022/07/04 12:50:52;;;;;;;15.90;14.80;;;30.40;45.20;;;;;;5063609;28;20462;-68
2022/07/04 12:53:19;;;;;;;15.17;14.40;;;30.10;44.60;;;;;;5063799;28;20461;-68
2022/07/04 12:55:48;;;;;;;15.70;14.73;;;30.00;44.60;;;;;;5063060;28;20469;-69
2022/07/04 12:58:16;;;;;;;15.97;14.87;;;29.60;46.30;;;;;;5063395;28;20940;-68